Time;durP1;ratioP1;P1;durP2;ratioP2;P2;SDS_P1;SDS_P2;PMS_P1;PMS_P2;Temp;Humidity;BMP_temperature;BMP_pressure;BME280_temperature;BME280_humidity;BME280_pressure;Samples;Min_cycle;Max_cycle;Signal;HPM_P1;HPM_P2
2022/02/05 00:00:30;;;;;;;14.13;11.75;;;;;;;9.12;49.60;99697.36;1792686;79;21570;-66
2022/02/05 00:05:49;;;;;;;16.57;12.35;;;;;;;9.10;49.59;99699.34;1844591;77;21017;-63
2022/02/05 00:11:05;;;;;;;14.55;11.93;;;;;;;9.09;49.58;99695.02;1804709;77;21498;-64
2022/02/05 00:15:52;;;;;;;15.83;12.55;;;;;;;9.08;49.54;99685.89;1720005;81;21004;-63
2022/02/05 00:40:08;;;;;;;13.75;11.00;;;;;;;9.00;49.50;99647.80;1710915;83;21057;-63
2022/02/05 00:42:42;;;;;;;15.40;12.03;;;;;;;8.99;49.51;99636.84;1785564;77;21113;-63
2022/02/05 00:45:11;;;;;;;15.88;11.38;;;;;;;8.99;49.49;99638.67;1833435;77;20986;-63
2022/02/05 00:47:42;;;;;;;12.63;11.20;;;;;;;8.99;49.50;99638.17;1813392;76;21151;-64
2022/02/05 00:50:14;;;;;;;13.43;11.10;;;;;;;8.99;49.49;99638.67;1824958;77;21055;-64
2022/02/05 00:52:37;;;;;;;14.58;11.38;;;;;;;8.99;49.47;99641.33;1839963;76;21005;-62
2022/02/05 00:55:09;;;;;;;14.95;11.75;;;;;;;8.99;49.45;99642.65;1825907;77;21318;-64
2022/02/05 00:57:45;;;;;;;14.07;11.63;;;;;;;8.99;49.43;99634.70;1848837;76;20974;-64
2022/02/05 01:00:14;;;;;;;15.50;12.28;;;;;;;8.99;49.43;99640.00;1840214;76;21748;-65
2022/02/05 01:02:41;;;;;;;14.75;11.33;;;;;;;8.99;49.38;99638.17;1834704;76;21569;-63
2022/02/05 01:05:08;;;;;;;14.70;11.12;;;;;;;8.99;49.36;99632.05;1846665;77;21461;-64
2022/02/05 01:07:35;;;;;;;16.15;11.90;;;;;;;8.99;49.35;99621.45;1847865;76;21022;-63
2022/02/05 01:10:01;;;;;;;16.10;11.83;;;;;;;8.99;49.32;99624.10;1837374;77;21053;-64
2022/02/05 01:12:31;;;;;;;16.00;11.40;;;;;;;8.98;49.31;99621.95;1832312;76;22376;-63
2022/02/05 01:14:59;;;;;;;14.58;12.07;;;;;;;8.99;49.30;99627.57;1828905;76;21071;-63
2022/02/05 01:17:33;;;;;;;15.18;11.70;;;;;;;8.99;49.29;99623.59;1832412;76;21495;-64
2022/02/05 01:22:22;;;;;;;14.47;11.28;;;;;;;8.99;49.25;99628.08;1840309;77;21045;-63
2022/02/05 01:24:51;;;;;;;12.65;10.68;;;;;;;8.98;49.23;99625.92;1833197;77;21136;-64
2022/02/05 01:30:27;;;;;;;13.40;11.08;;;;;;;8.99;49.20;99628.08;1828490;77;20974;-63
2022/02/05 01:33:08;;;;;;;15.32;11.33;;;;;;;8.98;49.19;99621.10;1845071;76;21072;-63
2022/02/05 01:35:32;;;;;;;13.60;10.68;;;;;;;8.97;49.17;99629.55;1836592;77;21054;-63
2022/02/05 01:49:11;;;;;;;16.32;11.45;;;;;;;8.94;49.13;99618.44;1838320;76;21072;-64
2022/02/05 01:59:15;;;;;;;12.28;10.03;;;;;;;8.92;49.11;99617.77;1832397;76;21006;-62
2022/02/05 02:09:46;;;;;;;12.95;9.80;;;;;;;8.88;49.06;99601.88;1827577;76;21021;-63
2022/02/05 02:12:04;;;;;;;12.28;10.82;;;;;;;8.88;49.04;99607.17;1801415;79;21069;-64
2022/02/05 02:19:34;;;;;;;12.82;11.03;;;;;;;8.87;49.02;99614.80;1824072;76;20975;-63
2022/02/05 02:22:04;;;;;;;12.03;9.95;;;;;;;8.86;49.01;99608.65;1861377;76;21059;-63
2022/02/05 02:27:23;;;;;;;11.88;9.63;;;;;;;8.84;48.97;99603.50;1833111;77;21009;-63
2022/02/05 02:29:56;;;;;;;13.30;10.18;;;;;;;8.84;48.95;99604.83;1828336;76;21713;-63
2022/02/05 02:32:09;;;;;;;11.30;9.55;;;;;;;8.83;48.95;99604.51;1843918;76;21001;-65
2022/02/05 02:34:41;;;;;;;12.82;10.82;;;;;;;8.84;48.95;99606.66;1833807;77;20965;-63
2022/02/05 02:37:14;;;;;;;12.85;10.23;;;;;;;8.82;48.94;99608.13;1823491;76;21485;-63
2022/02/05 02:40:05;;;;;;;12.40;9.90;;;;;;;8.83;48.91;99597.06;1823886;77;21100;-63
2022/02/05 02:42:21;;;;;;;10.63;9.50;;;;;;;8.83;48.89;99596.56;1844828;77;23224;-64
2022/02/05 02:44:47;;;;;;;14.13;11.55;;;;;;;8.82;48.88;99596.72;1836700;77;21461;-63
2022/02/05 02:47:15;;;;;;;14.13;10.40;;;;;;;8.82;48.87;99594.06;1827010;77;21494;-64
2022/02/05 02:57:59;;;;;;;13.45;10.35;;;;;;;8.78;48.84;99567.06;1771297;79;21052;-63
2022/02/05 03:00:25;;;;;;;12.35;9.85;;;;;;;8.78;48.83;99571.04;1850819;76;21002;-63
2022/02/05 03:02:52;;;;;;;12.07;10.58;;;;;;;8.78;48.83;99571.55;1830069;76;21490;-64
2022/02/05 03:05:18;;;;;;;12.98;10.25;;;;;;;8.77;48.80;99571.19;1838372;77;21017;-63
2022/02/05 03:07:45;;;;;;;12.70;10.08;;;;;;;8.76;48.78;99573.02;1840406;76;21172;-64
2022/02/05 03:10:11;;;;;;;12.37;10.13;;;;;;;8.76;48.77;99569.05;1777724;79;20979;-64
2022/02/05 03:12:38;;;;;;;13.40;11.10;;;;;;;8.76;48.75;99564.25;1814023;77;21018;-64
2022/02/05 03:15:06;;;;;;;13.48;11.03;;;;;;;8.75;48.74;99566.55;1809100;77;21108;-63
2022/02/05 03:17:39;;;;;;;12.50;10.00;;;;;;;8.76;48.71;99560.28;1797120;78;21082;-64
2022/02/05 03:20:02;;;;;;;12.28;10.58;;;;;;;8.75;48.71;99566.08;1782115;78;21984;-63
2022/02/05 03:22:28;;;;;;;12.25;9.78;;;;;;;8.74;48.70;99555.14;1789967;77;21091;-64
2022/02/05 03:24:55;;;;;;;12.25;10.65;;;;;;;8.75;48.67;99548.02;1771400;79;21011;-62
2022/02/05 03:27:21;;;;;;;12.88;10.23;;;;;;;8.73;48.66;99552.17;1761929;79;21494;-63
2022/02/05 03:29:49;;;;;;;12.63;10.15;;;;;;;8.72;48.66;99546.52;1766705;79;21060;-63
2022/02/05 03:32:18;;;;;;;10.72;9.25;;;;;;;8.72;48.65;99543.87;1773701;79;21475;-63
2022/02/05 03:34:44;;;;;;;12.60;9.85;;;;;;;8.73;48.61;99543.37;1783306;79;21061;-64
2022/02/05 03:37:11;;;;;;;12.30;9.95;;;;;;;8.72;48.62;99554.47;1774242;80;21026;-63
2022/02/05 03:39:37;;;;;;;12.00;10.68;;;;;;;8.72;48.61;99553.14;1766249;79;20999;-63
2022/02/05 03:42:04;;;;;;;13.13;10.53;;;;;;;8.71;48.61;99544.03;1769267;79;21088;-64
2022/02/05 03:44:32;;;;;;;11.28;9.88;;;;;;;8.70;48.59;99547.19;1764147;79;21208;-63
2022/02/05 03:46:59;;;;;;;12.70;10.13;;;;;;;8.71;48.57;99548.86;1778088;79;21019;-63
2022/02/05 03:49:25;;;;;;;11.93;9.70;;;;;;;8.69;48.56;99557.42;1784289;79;21530;-64
2022/02/05 03:51:51;;;;;;;13.10;9.70;;;;;;;8.69;48.53;99554.78;1772536;80;21499;-64
2022/02/05 03:54:20;;;;;;;11.08;9.38;;;;;;;8.69;48.54;99549.48;1776449;80;20987;-63
2022/02/05 03:56:49;;;;;;;12.20;10.28;;;;;;;8.68;48.52;99538.57;1774382;79;21150;-63
2022/02/05 03:59:16;;;;;;;13.78;10.78;;;;;;;8.68;48.50;99546.52;1753721;79;21003;-64
2022/02/05 04:01:42;;;;;;;12.00;10.35;;;;;;;8.68;48.49;99533.78;1768031;79;21082;-65
2022/02/05 04:04:09;;;;;;;12.60;10.78;;;;;;;8.67;48.49;99531.60;1793471;78;21105;-64
2022/02/05 04:06:36;;;;;;;13.20;10.10;;;;;;;8.66;48.48;99522.02;1796818;78;21043;-64
2022/02/05 04:09:07;;;;;;;14.23;10.72;;;;;;;8.65;48.46;99525.16;1797539;77;22349;-64
2022/02/05 04:11:55;;;;;;;12.68;10.45;;;;;;;8.65;48.45;99530.94;1805557;79;21104;-63
2022/02/05 04:16:49;;;;;;;13.13;10.25;;;;;;;8.64;48.44;99521.34;1806242;77;21093;-64
2022/02/05 04:19:16;;;;;;;14.00;11.12;;;;;;;8.62;48.44;99528.13;1794294;79;21093;-65
2022/02/05 04:21:43;;;;;;;12.82;9.60;;;;;;;8.62;48.45;99535.25;1773885;80;21470;-64
2022/02/05 04:24:09;;;;;;;13.72;10.65;;;;;;;8.61;48.43;99522.48;1817778;78;20986;-64
2022/02/05 04:26:37;;;;;;;12.60;10.20;;;;;;;8.61;48.43;99520.33;1808867;77;21061;-64
2022/02/05 04:29:08;;;;;;;12.93;10.10;;;;;;;8.60;48.41;99520.02;1773173;78;21064;-64
2022/02/05 04:31:35;;;;;;;13.62;10.68;;;;;;;8.59;48.41;99521.81;1748473;81;21026;-64
2022/02/05 04:34:53;;;;;;;12.05;10.32;;;;;;;8.63;48.39;99525.83;1859872;76;28067;-63
2022/02/05 04:37:23;;;;;;;12.30;10.50;;;;;;;8.59;48.37;99526.28;1798719;78;20998;-64
2022/02/05 04:39:55;;;;;;;14.33;10.43;;;;;;;8.58;48.38;99520.17;1756660;81;21132;-65
2022/02/05 04:42:24;;;;;;;11.63;9.60;;;;;;;8.58;48.37;99520.67;1757333;81;21066;-64
2022/02/05 04:45:18;;;;;;;12.37;10.58;;;;;;;8.57;48.35;99516.35;1742796;81;21156;-63
2022/02/05 05:03:41;;;;;;;13.15;9.78;;;;;;;8.51;48.37;99519.14;1763034;80;21252;-64
2022/02/05 05:08:48;;;;;;;12.88;10.45;;;;;;;8.50;48.36;99508.23;1763315;80;21010;-64
2022/02/05 05:20:05;;;;;;;13.80;11.03;;;;;;;8.48;48.37;99504.07;1787324;79;21185;-64
2022/02/05 05:21:42;;;;;;;12.37;10.40;;;;;;;8.46;48.38;99505.08;1766426;80;20997;-63
2022/02/05 05:24:08;;;;;;;15.78;10.80;;;;;;;8.45;48.39;99507.88;1777196;79;21498;-64
2022/02/05 05:26:34;;;;;;;13.60;11.57;;;;;;;8.44;48.37;99508.85;1761639;80;21588;-64
2022/02/05 05:29:01;;;;;;;13.48;10.90;;;;;;;8.44;48.38;99510.17;1783762;80;21076;-65
2022/02/05 05:31:28;;;;;;;12.18;10.08;;;;;;;8.44;48.37;99517.64;1773341;80;21142;-64
2022/02/05 05:33:54;;;;;;;11.80;10.28;;;;;;;8.43;48.38;99513.83;1767234;80;21132;-65
2022/02/05 05:36:22;;;;;;;13.95;11.25;;;;;;;8.43;48.37;99529.21;1753624;81;21080;-64
2022/02/05 05:38:49;;;;;;;13.18;10.95;;;;;;;8.43;48.36;99519.94;1737798;81;21060;-63
2022/02/05 05:41:15;;;;;;;12.60;10.60;;;;;;;8.44;48.36;99526.91;1767586;80;21011;-63
2022/02/05 05:43:58;;;;;;;13.60;11.10;;;;;;;8.43;48.33;99523.09;1757925;81;21096;-64
2022/02/05 05:46:31;;;;;;;13.75;11.40;;;;;;;8.43;48.33;99512.50;1762565;81;21138;-65
2022/02/05 05:51:16;;;;;;;14.43;11.03;;;;;;;8.42;48.34;99518.30;1752638;81;21031;-64
2022/02/05 05:53:42;;;;;;;12.10;10.43;;;;;;;8.39;48.31;99500.55;1755111;81;21629;-63
2022/02/05 05:56:08;;;;;;;14.78;11.48;;;;;;;8.41;48.30;99502.54;1768874;81;21196;-65
2022/02/05 05:58:35;;;;;;;14.50;11.15;;;;;;;8.41;48.30;99502.54;1765980;81;21082;-64
2022/02/05 06:01:01;;;;;;;12.95;10.30;;;;;;;8.40;48.30;99497.75;1769539;81;21073;-64
2022/02/05 06:03:27;;;;;;;12.88;10.80;;;;;;;8.39;48.28;99493.43;1761189;81;21027;-63
2022/02/05 06:05:53;;;;;;;13.70;11.38;;;;;;;8.40;48.29;99489.81;1763373;80;21026;-63
2022/02/05 06:08:20;;;;;;;13.05;10.72;;;;;;;8.40;48.28;99483.19;1767229;81;22030;-64
2022/02/05 06:10:46;;;;;;;13.65;11.22;;;;;;;8.40;48.27;99483.19;1766334;81;22266;-63
2022/02/05 06:13:15;;;;;;;12.07;10.38;;;;;;;8.41;48.25;99478.24;1762939;81;21034;-63
2022/02/05 06:15:42;;;;;;;14.28;11.10;;;;;;;8.40;48.27;99483.19;1772425;81;21074;-64
2022/02/05 06:18:09;;;;;;;14.30;10.88;;;;;;;8.40;48.25;99488.95;1753647;81;21061;-63
2022/02/05 06:20:37;;;;;;;14.07;10.60;;;;;;;8.40;48.28;99486.31;1765392;80;21133;-63
2022/02/05 06:23:04;;;;;;;13.88;10.38;;;;;;;8.40;48.25;99487.63;1777788;80;21025;-64
2022/02/05 06:25:38;;;;;;;12.98;11.35;;;;;;;8.39;48.28;99474.90;1773774;79;21767;-65
2022/02/05 06:27:59;;;;;;;13.13;10.63;;;;;;;8.39;48.28;99477.55;1779133;80;21096;-65
2022/02/05 06:30:25;;;;;;;13.10;11.22;;;;;;;8.39;48.26;99474.90;1773714;79;21343;-63
2022/02/05 06:32:51;;;;;;;13.53;11.43;;;;;;;8.39;48.24;99484.16;1778890;79;21116;-64
2022/02/05 06:35:19;;;;;;;11.93;10.38;;;;;;;8.39;48.26;99479.38;1775160;79;21048;-64
2022/02/05 06:37:46;;;;;;;15.20;10.88;;;;;;;8.39;48.25;99479.38;1776963;80;20994;-64
2022/02/05 06:40:13;;;;;;;14.40;11.55;;;;;;;8.39;48.25;99480.20;1778238;79;21174;-63
2022/02/05 06:42:45;;;;;;;13.60;11.12;;;;;;;8.38;48.24;99469.29;1782947;79;20997;-63
2022/02/05 06:45:13;;;;;;;14.10;11.25;;;;;;;8.39;48.25;99468.28;1721132;82;21117;-64
2022/02/05 06:47:40;;;;;;;12.93;10.75;;;;;;;8.40;48.25;99469.10;1808987;78;20994;-65
2022/02/05 06:50:07;;;;;;;13.62;11.20;;;;;;;8.39;48.25;99468.28;1806934;77;21596;-65
2022/02/05 06:52:35;;;;;;;13.83;10.98;;;;;;;8.38;48.25;99461.81;1831462;77;21483;-67
2022/02/05 06:55:07;;;;;;;14.20;11.43;;;;;;;8.37;48.26;99464.97;1818766;77;21096;-66
2022/02/05 06:57:34;;;;;;;12.30;11.00;;;;;;;8.38;48.23;99468.44;1822580;77;21471;-65
2022/02/05 07:00:01;;;;;;;14.25;10.72;;;;;;;8.37;48.25;99464.97;1813583;77;21486;-64
2022/02/05 07:02:27;;;;;;;12.33;10.15;;;;;;;8.38;48.25;99464.47;1803375;77;20999;-65
2022/02/05 07:04:54;;;;;;;13.90;10.80;;;;;;;8.37;48.26;99462.32;1815501;78;21100;-63
2022/02/05 07:07:20;;;;;;;14.90;10.80;;;;;;;8.37;48.26;99455.70;1815806;77;21013;-66
2022/02/05 07:09:46;;;;;;;11.73;9.95;;;;;;;8.37;48.26;99461.00;1819054;78;21100;-67
2022/02/05 07:12:14;;;;;;;12.45;10.45;;;;;;;8.37;48.23;99446.94;1818815;77;21499;-65
2022/02/05 07:17:39;;;;;;;13.30;10.25;;;;;;;8.37;48.73;99449.59;1816702;78;21565;-65
2022/02/05 07:20:06;;;;;;;12.20;10.05;;;;;;;8.38;48.78;99444.14;1805767;78;21006;-64
2022/02/05 07:22:31;;;;;;;13.55;11.43;;;;;;;8.38;48.79;99449.44;1809761;78;23157;-64
2022/02/05 07:30:24;;;;;;;13.10;10.82;;;;;;;8.40;48.75;99428.92;1772825;80;21140;-66
2022/02/05 07:32:51;;;;;;;11.73;9.68;;;;;;;8.40;48.73;99428.92;1730209;82;21017;-65
2022/02/05 07:35:17;;;;;;;14.70;10.60;;;;;;;8.41;48.70;99424.45;1751602;81;21784;-66
2022/02/05 07:37:43;;;;;;;11.63;9.98;;;;;;;8.39;48.70;99414.02;1765339;81;21019;-66
2022/02/05 07:40:10;;;;;;;11.93;9.90;;;;;;;8.41;48.67;99426.62;1771475;81;21164;-65
2022/02/05 07:42:37;;;;;;;13.22;10.72;;;;;;;8.42;48.65;99426.12;1749787;81;21030;-66
2022/02/05 07:45:07;;;;;;;13.88;10.35;;;;;;;8.43;48.61;99421.17;1754634;81;21759;-65
2022/02/05 07:47:35;;;;;;;12.73;9.98;;;;;;;8.44;48.60;99422.81;1755613;81;22203;-66
2022/02/05 07:50:03;;;;;;;13.53;10.98;;;;;;;8.45;48.60;99415.22;1764200;81;21009;-66
2022/02/05 07:52:29;;;;;;;11.30;10.10;;;;;;;8.46;48.59;99401.83;1752126;81;21022;-65
2022/02/05 07:54:56;;;;;;;13.22;10.13;;;;;;;8.47;48.56;99403.97;1772408;81;21058;-66
2022/02/05 07:57:22;;;;;;;12.65;10.35;;;;;;;8.48;48.54;99389.77;1753429;80;21025;-65
2022/02/05 07:59:50;;;;;;;11.48;10.03;;;;;;;8.48;48.52;99377.84;1768119;81;21565;-68
2022/02/05 08:02:17;;;;;;;11.65;10.35;;;;;;;8.49;48.53;99379.48;1770992;81;21065;-68
2022/02/05 08:04:43;;;;;;;15.38;10.20;;;;;;;8.51;48.50;99372.71;1767016;80;21041;-66
2022/02/05 08:07:09;;;;;;;11.20;9.85;;;;;;;8.52;48.45;99365.09;1768017;81;21010;-65
2022/02/05 08:10:21;;;;;;;12.37;10.28;;;;;;;8.52;48.45;99375.20;1762750;79;21054;-65
2022/02/05 08:12:11;;;;;;;13.25;9.98;;;;;;;8.53;48.43;99356.16;1737267;79;21275;-64
2022/02/05 08:14:44;;;;;;;12.35;10.53;;;;;;;8.53;48.42;99360.95;1766609;80;21030;-65
2022/02/05 08:17:17;;;;;;;13.00;10.55;;;;;;;8.53;48.39;99355.66;1771447;81;21043;-64
2022/02/05 08:19:35;;;;;;;11.38;9.70;;;;;;;8.55;48.39;99358.15;1769198;81;21070;-65
2022/02/05 08:22:02;;;;;;;14.07;10.10;;;;;;;8.55;48.39;99358.15;1769776;81;21069;-64
2022/02/05 08:24:28;;;;;;;12.95;10.75;;;;;;;8.55;48.37;99362.13;1736106;81;21144;-64
2022/02/05 08:26:54;;;;;;;11.70;9.93;;;;;;;8.55;48.37;99368.23;1806157;78;20989;-64
2022/02/05 08:29:21;;;;;;;12.65;10.45;;;;;;;8.56;48.36;99354.53;1822621;78;21107;-65
2022/02/05 08:31:48;;;;;;;13.25;10.80;;;;;;;8.56;48.36;99348.72;1822192;78;21013;-66
2022/02/05 08:34:15;;;;;;;11.60;9.88;;;;;;;8.56;48.34;99350.05;1808724;78;21502;-65
2022/02/05 08:36:45;;;;;;;13.80;10.38;;;;;;;8.56;48.34;99357.17;1813191;78;22330;-65
2022/02/05 08:39:12;;;;;;;11.40;8.93;;;;;;;8.56;48.33;99351.88;1813348;79;21041;-65
2022/02/05 08:41:39;;;;;;;12.53;9.78;;;;;;;8.57;48.32;99358.81;1810979;79;21026;-64
2022/02/05 08:44:07;;;;;;;12.50;10.43;;;;;;;8.57;48.33;99358.81;1814324;78;21037;-65
2022/02/05 08:46:34;;;;;;;11.45;9.13;;;;;;;8.57;48.33;99361.46;1814399;79;21018;-66
2022/02/05 08:49:00;;;;;;;11.43;9.80;;;;;;;8.57;48.33;99359.63;1813977;79;23313;-64
2022/02/05 08:51:28;;;;;;;12.15;9.95;;;;;;;8.58;48.31;99353.86;1799462;79;21608;-65
2022/02/05 08:53:55;;;;;;;12.28;10.25;;;;;;;8.58;48.32;99357.84;1813209;79;21466;-66
2022/02/05 08:56:23;;;;;;;12.85;10.55;;;;;;;8.59;48.31;99348.88;1814323;79;21702;-63
2022/02/05 08:58:51;;;;;;;11.95;9.83;;;;;;;8.60;48.32;99341.28;1814440;78;21038;-64
2022/02/05 09:01:22;;;;;;;11.88;10.05;;;;;;;8.61;48.28;99342.92;1796843;77;21090;-65
2022/02/05 09:06:12;;;;;;;11.08;9.50;;;;;;;8.63;48.27;99340.94;1803893;79;21028;-65
2022/02/05 09:08:48;;;;;;;12.53;9.93;;;;;;;8.63;48.28;99343.11;1803142;78;21020;-65
2022/02/05 09:11:32;;;;;;;11.65;9.58;;;;;;;8.64;48.26;99324.07;1809048;78;21455;-65
2022/02/05 09:16:12;;;;;;;13.83;10.18;;;;;;;8.65;48.27;99320.41;1814349;79;21494;-65
2022/02/05 09:18:39;;;;;;;11.28;9.98;;;;;;;8.66;48.26;99312.81;1808383;78;21030;-63
2022/02/05 09:21:06;;;;;;;11.03;9.50;;;;;;;8.66;48.26;99308.84;1806642;78;21084;-64
2022/02/05 09:23:32;;;;;;;11.18;9.20;;;;;;;8.68;48.24;99308.17;1795502;79;22127;-64
2022/02/05 09:26:00;;;;;;;11.70;10.15;;;;;;;8.68;48.24;99313.47;1808140;79;21128;-64
2022/02/05 09:28:29;;;;;;;11.80;9.35;;;;;;;8.70;48.22;99302.22;1801822;78;21534;-64
2022/02/05 09:31:24;;;;;;;12.47;10.13;;;;;;;8.70;48.23;99299.56;1810712;79;21023;-64
2022/02/05 09:33:29;;;;;;;11.57;9.23;;;;;;;8.72;48.20;99294.92;1812753;79;21061;-65
2022/02/05 09:35:56;;;;;;;11.90;9.48;;;;;;;8.72;48.21;99296.76;1814373;78;21272;-64
2022/02/05 09:38:22;;;;;;;12.82;9.68;;;;;;;8.72;48.21;99297.58;1814264;79;21031;-65
2022/02/05 09:40:49;;;;;;;10.93;9.38;;;;;;;8.73;48.22;99297.92;1814305;79;21053;-64
2022/02/05 09:43:15;;;;;;;10.72;9.58;;;;;;;8.74;48.22;99291.61;1784808;79;21065;-66
2022/02/05 09:45:42;;;;;;;10.80;8.98;;;;;;;8.75;48.20;99290.63;1803374;79;21050;-64
2022/02/05 09:48:08;;;;;;;11.50;9.95;;;;;;;8.76;48.20;99291.45;1814476;78;21085;-64
2022/02/05 09:50:39;;;;;;;10.95;9.75;;;;;;;8.77;48.19;99279.84;1807859;78;21180;-64
2022/02/05 09:53:13;;;;;;;12.55;9.93;;;;;;;8.77;48.20;99274.08;1812571;79;21034;-64
2022/02/05 09:55:34;;;;;;;11.33;10.10;;;;;;;8.77;48.20;99282.02;1813574;78;21002;-66
2022/02/05 09:58:00;;;;;;;11.75;9.63;;;;;;;8.79;48.19;99279.21;1814281;78;21077;-63
2022/02/05 10:00:27;;;;;;;10.63;9.35;;;;;;;8.79;48.18;99281.86;1805043;79;21045;-64
2022/02/05 10:02:57;;;;;;;12.50;10.60;;;;;;;8.80;48.17;99276.87;1808648;79;21474;-64
2022/02/05 10:05:30;;;;;;;11.73;10.08;;;;;;;8.80;48.16;99267.61;1814719;78;21534;-65
2022/02/05 10:08:02;;;;;;;13.20;10.55;;;;;;;8.81;48.15;99271.42;1814069;78;21955;-66
2022/02/05 10:10:41;;;;;;;10.32;9.18;;;;;;;8.81;48.16;99271.42;1795590;78;21003;-64
2022/02/05 10:13:19;;;;;;;10.95;9.53;;;;;;;8.83;48.16;99267.28;1775408;80;21038;-64
2022/02/05 10:15:53;;;;;;;14.05;9.90;;;;;;;8.82;48.16;99262.46;1775770;80;21272;-65
2022/02/05 10:18:29;;;;;;;10.38;9.03;;;;;;;8.82;48.16;99255.84;1744431;79;23820;-66
2022/02/05 10:21:02;;;;;;;11.70;10.25;;;;;;;8.83;48.19;99259.34;1745161;79;21199;-64
2022/02/05 10:23:30;;;;;;;;;;;;;;;8.83;48.17;99262.80;1764309;81;21018;-64
2022/02/05 10:25:56;;;;;;;10.00;8.80;;;;;;;8.84;48.16;99246.41;1764518;81;20176;-64
2022/02/05 10:28:23;;;;;;;10.00;8.70;;;;;;;8.83;48.17;99252.20;1762008;80;21140;-66
2022/02/05 10:30:53;;;;;;;10.05;9.03;;;;;;;8.82;48.20;99245.24;1762962;81;21127;-65
2022/02/05 10:33:30;;;;;;;10.90;8.88;;;;;;;8.83;48.22;99242.12;1762370;81;21093;-68
2022/02/05 10:36:05;;;;;;;9.55;8.58;;;;;;;8.83;48.21;99253.53;1732888;80;21079;-65
2022/02/05 10:43:58;;;;;;;9.83;8.53;;;;;;;8.84;48.21;99232.66;1734097;81;21039;-65
2022/02/05 10:46:42;;;;;;;10.53;9.08;;;;;;;8.84;48.21;99222.56;1762441;80;21005;-66
2022/02/05 10:49:06;;;;;;;10.95;9.30;;;;;;;8.85;48.23;99211.81;1759316;80;21040;-66
2022/02/05 10:51:46;;;;;;;11.45;9.55;;;;;;;8.85;48.25;99212.31;1763185;80;21059;-64
2022/02/05 10:54:25;;;;;;;12.13;9.75;;;;;;;8.85;48.23;99222.41;1715423;82;21123;-65
2022/02/05 10:57:10;;;;;;;12.20;10.15;;;;;;;8.85;48.25;99215.78;1734474;82;21009;-65
2022/02/05 11:05:38;;;;;;;11.10;9.63;;;;;;;8.85;48.25;99197.23;1732760;82;21057;-66
2022/02/05 11:07:59;;;;;;;11.22;9.88;;;;;;;8.87;48.27;99193.61;1714814;82;21148;-65
2022/02/05 11:21:08;;;;;;;11.45;9.75;;;;;;;8.86;48.33;99179.52;1729468;82;21218;-65
2022/02/05 11:23:34;;;;;;;12.03;9.55;;;;;;;8.87;48.36;99181.18;1739709;82;20993;-68
2022/02/05 11:26:03;;;;;;;12.13;10.63;;;;;;;8.88;48.34;99171.41;1735435;82;21021;-64
2022/02/05 11:28:54;;;;;;;11.40;9.93;;;;;;;8.88;48.35;99170.89;1734363;82;21056;-65
2022/02/05 11:31:32;;;;;;;11.28;10.08;;;;;;;8.90;48.38;99193.25;1784361;79;21126;-65
2022/02/05 11:34:30;;;;;;;11.88;10.50;;;;;;;8.90;48.36;99172.88;1773031;79;21773;-65
2022/02/05 11:37:06;;;;;;;10.95;9.33;;;;;;;8.92;48.37;99161.61;1803376;79;21061;-65
2022/02/05 11:39:50;;;;;;;11.97;10.38;;;;;;;8.92;48.38;99162.11;1814092;79;20987;-64
2022/02/05 11:42:36;;;;;;;12.75;11.08;;;;;;;8.92;48.40;99156.31;1809346;79;21745;-65
2022/02/05 11:45:28;;;;;;;11.50;9.70;;;;;;;8.95;48.42;99148.53;1790254;79;21088;-66
2022/02/05 11:47:57;;;;;;;11.78;9.90;;;;;;;8.94;48.41;99150.34;1803439;79;21128;-67
2022/02/05 11:50:25;;;;;;;12.13;10.58;;;;;;;8.95;48.43;99140.59;1799029;78;22031;-66
2022/02/05 11:52:54;;;;;;;11.12;9.85;;;;;;;8.95;48.45;99150.68;1814463;79;21492;-65
2022/02/05 11:55:39;;;;;;;11.22;10.13;;;;;;;8.96;48.43;99135.60;1811424;77;21541;-65
2022/02/05 11:58:07;;;;;;;11.20;9.85;;;;;;;8.98;48.43;99134.93;1812432;78;21034;-66
2022/02/05 12:00:39;;;;;;;12.70;10.30;;;;;;;8.98;48.42;99132.28;1813168;79;21128;-65
2022/02/05 12:03:30;;;;;;;12.68;10.32;;;;;;;8.99;48.46;99120.70;1812277;79;21104;-66
2022/02/05 12:06:01;;;;;;;11.00;9.85;;;;;;;9.00;48.45;99116.56;1793187;79;21077;-67
2022/02/05 12:08:27;;;;;;;12.18;10.35;;;;;;;9.03;48.43;99110.08;1809287;79;20987;-66
2022/02/05 12:10:56;;;;;;;10.93;9.73;;;;;;;9.02;48.45;99114.56;1814015;77;21025;-66
2022/02/05 12:13:38;;;;;;;12.10;10.82;;;;;;;9.03;48.46;99104.27;1810657;78;23279;-67
2022/02/05 12:16:11;;;;;;;10.45;9.45;;;;;;;9.04;48.44;99095.34;1800975;79;21577;-67
2022/02/05 12:19:27;;;;;;;11.60;10.08;;;;;;;9.05;48.43;99096.97;1813311;78;22032;-67
2022/02/05 12:22:11;;;;;;;12.30;10.15;;;;;;;9.07;48.43;99098.12;1789233;78;21506;-65
2022/02/05 12:25:14;;;;;;;12.18;10.25;;;;;;;9.07;48.44;99092.83;1811580;78;21459;-66
2022/02/05 12:27:38;;;;;;;11.03;9.63;;;;;;;9.08;48.46;99101.12;1788616;78;21340;-66
2022/02/05 12:30:35;;;;;;;11.80;10.55;;;;;;;9.07;48.47;99092.83;1746256;80;21018;-65
2022/02/05 12:33:00;;;;;;;11.65;10.38;;;;;;;9.08;48.50;99096.30;1719855;82;21032;-66
2022/02/05 12:35:26;;;;;;;12.15;10.70;;;;;;;9.08;48.48;99098.95;1741872;81;21177;-66
2022/02/05 12:37:53;;;;;;;11.68;10.48;;;;;;;9.08;48.49;99091.84;1812813;78;21490;-64
2022/02/05 12:40:19;;;;;;;13.20;10.80;;;;;;;9.09;48.51;99093.98;1823354;78;21054;-65
2022/02/05 12:42:56;;;;;;;11.22;10.13;;;;;;;9.10;48.50;99083.70;1822826;78;21034;-66
2022/02/05 12:45:48;;;;;;;13.40;11.65;;;;;;;9.10;48.52;99091.64;1821102;77;21121;-66
2022/02/05 12:48:10;;;;;;;13.10;10.95;;;;;;;9.11;48.49;99076.91;1815797;78;21092;-65
2022/02/05 12:50:40;;;;;;;12.28;10.40;;;;;;;9.10;48.50;99081.89;1822865;77;21014;-65
2022/02/05 12:53:07;;;;;;;13.93;11.55;;;;;;;9.12;48.50;99084.38;1821771;78;21537;-65
2022/02/05 12:55:43;;;;;;;12.95;10.95;;;;;;;9.12;48.52;99071.95;1823376;78;21549;-65
2022/02/05 12:58:02;;;;;;;11.63;10.43;;;;;;;9.13;48.51;99060.33;1820720;78;20998;-66
2022/02/05 13:00:29;;;;;;;12.88;10.28;;;;;;;9.15;48.49;99057.51;1819935;77;21562;-67
2022/02/05 13:02:55;;;;;;;11.95;10.50;;;;;;;9.16;48.51;99071.09;1830243;77;21018;-68
2022/02/05 13:05:33;;;;;;;13.30;10.80;;;;;;;9.17;48.50;99062.95;1805880;77;21118;-66
2022/02/05 13:08:00;;;;;;;11.70;10.38;;;;;;;9.17;48.49;99060.30;1811698;78;21057;-67
2022/02/05 13:10:42;;;;;;;13.38;10.95;;;;;;;9.18;48.48;99047.38;1821861;78;20990;-68
2022/02/05 13:13:10;;;;;;;11.73;9.83;;;;;;;9.19;48.49;99045.08;1805277;78;21568;-64
2022/02/05 13:15:36;;;;;;;12.63;10.50;;;;;;;9.19;48.38;99054.83;1812805;77;21009;-66
2022/02/05 13:18:28;;;;;;;11.45;10.35;;;;;;;9.21;48.46;99059.45;1812447;77;21118;-65
2022/02/05 13:34:27;;;;;;;13.05;10.72;;;;;;;9.20;48.49;99057.81;1815375;77;20986;-65
2022/02/05 13:39:45;;;;;;;13.22;11.48;;;;;;;9.19;48.50;99057.48;1825965;78;21537;-65
2022/02/05 13:42:12;;;;;;;;;;;;;;;9.19;48.52;99051.70;1827619;78;21079;-65
2022/02/05 13:47:22;;;;;;;14.45;11.50;;;;;;;9.17;48.55;99065.59;1824589;78;21001;-66
2022/02/05 13:50:14;;;;;;;12.25;10.15;;;;;;;9.16;48.57;99070.59;1825219;78;21017;-66
2022/02/05 13:52:50;;;;;;;12.63;10.72;;;;;;;9.15;48.58;99065.45;1815177;78;21524;-65
2022/02/05 13:55:34;;;;;;;12.43;10.70;;;;;;;9.15;48.58;99060.97;1825562;78;21580;-66
2022/02/05 13:58:07;;;;;;;12.28;10.38;;;;;;;9.15;48.59;99045.58;1826410;78;21109;-66
2022/02/05 14:01:01;;;;;;;13.88;11.25;;;;;;;9.13;48.61;99048.41;1820103;78;21068;-65
2022/02/05 14:03:37;;;;;;;13.40;11.00;;;;;;;9.13;48.61;99056.35;1818364;78;20999;-67
2022/02/05 14:06:09;;;;;;;11.88;10.68;;;;;;;9.14;48.62;99046.60;1802024;78;21089;-66
2022/02/05 14:08:43;;;;;;;12.75;10.95;;;;;;;9.12;48.65;99056.05;1811333;77;20996;-65
2022/02/05 14:11:09;;;;;;;11.35;9.95;;;;;;;9.12;48.65;99049.42;1812468;78;21122;-66
2022/02/05 14:13:37;;;;;;;12.98;11.03;;;;;;;9.11;48.68;99050.41;1815680;78;20999;-65
2022/02/05 14:16:05;;;;;;;13.55;11.78;;;;;;;9.11;48.69;99048.27;1799650;78;21022;-67
2022/02/05 14:18:54;;;;;;;12.82;10.90;;;;;;;9.11;48.68;99053.56;1822170;78;21087;-65
2022/02/05 14:21:18;;;;;;;12.18;10.88;;;;;;;9.11;48.70;99047.75;1824775;78;21482;-66
2022/02/05 14:23:53;;;;;;;12.47;10.65;;;;;;;9.10;48.71;99052.75;1773904;77;21329;-66
2022/02/05 14:26:32;;;;;;;15.48;10.88;;;;;;;9.10;48.72;99052.75;1773481;80;21029;-65